Time;durP1;ratioP1;P1;durP2;ratioP2;P2;SDS_P1;SDS_P2;PMS_P1;PMS_P2;Temp;Humidity;BMP_temperature;BMP_pressure;BME280_temperature;BME280_humidity;BME280_pressure;Samples;Min_cycle;Max_cycle;Signal;HPM_P1;HPM_P2
2024/02/28 00:02:24;;;;;;;60.57;39.77;;;3.30;99.90;;;;;;5157155;27;20520;-76
2024/02/28 00:04:53;;;;;;;60.73;40.30;;;3.20;99.90;;;;;;5175853;27;20943;-76
2024/02/28 00:07:23;;;;;;;53.80;38.00;;;3.20;99.90;;;;;;5176289;27;20960;-76
2024/02/28 00:09:51;;;;;;;54.60;38.20;;;3.10;99.90;;;;;;5157090;27;20489;-76
2024/02/28 00:12:20;;;;;;;53.87;39.17;;;3.10;99.90;;;;;;5176130;27;20432;-76
2024/02/28 00:14:48;;;;;;;57.40;39.83;;;3.00;99.90;;;;;;5157046;27;20444;-76
2024/02/28 00:17:16;;;;;;;53.07;36.63;;;3.00;99.90;;;;;;5157067;27;20476;-76
2024/02/28 00:19:45;;;;;;;52.53;35.67;;;3.00;99.90;;;;;;5157063;27;20436;-76
2024/02/28 00:22:13;;;;;;;52.93;37.40;;;2.90;99.90;;;;;;5156829;27;20475;-76
2024/02/28 00:24:43;;;;;;;58.60;38.30;;;2.90;99.90;;;;;;5156933;27;20489;-76
2024/02/28 00:27:11;;;;;;;58.23;36.80;;;2.80;99.90;;;;;;5156880;27;20498;-76
2024/02/28 00:29:40;;;;;;;59.07;38.13;;;2.80;99.90;;;;;;5175523;27;20433;-76
2024/02/28 00:32:08;;;;;;;53.83;38.03;;;2.80;99.90;;;;;;5157160;27;20517;-76
2024/02/28 00:34:37;;;;;;;51.70;37.80;;;2.70;99.90;;;;;;5156975;27;20517;-76
2024/02/28 00:37:05;;;;;;;51.90;35.83;;;2.70;99.90;;;;;;5175382;27;20298;-76
2024/02/28 00:39:35;;;;;;;54.90;36.53;;;2.70;99.90;;;;;;5175396;27;20437;-76
2024/02/28 00:42:05;;;;;;;53.90;36.70;;;2.60;99.90;;;;;;5156621;27;20973;-76
2024/02/28 00:44:33;;;;;;;61.00;38.20;;;2.60;99.90;;;;;;5156963;27;20481;-76
2024/02/28 00:47:02;;;;;;;56.83;38.57;;;2.60;99.90;;;;;;5156612;27;20461;-76
2024/02/28 00:49:30;;;;;;;56.83;37.47;;;2.50;99.90;;;;;;5156752;27;20446;-76
2024/02/28 00:51:58;;;;;;;56.03;36.50;;;2.40;99.90;;;;;;5156653;27;20980;-74
2024/02/28 00:54:27;;;;;;;55.70;35.50;;;2.40;99.90;;;;;;5158410;27;20511;-76
2024/02/28 00:56:55;;;;;;;55.67;38.30;;;2.40;99.90;;;;;;5179634;27;20511;-75
2024/02/28 00:59:25;;;;;;;56.43;35.50;;;2.40;99.90;;;;;;5179191;27;20480;-76
2024/02/28 01:01:53;;;;;;;59.83;39.30;;;2.40;99.90;;;;;;5160406;27;20474;-76
2024/02/28 01:04:22;;;;;;;52.47;34.90;;;2.40;99.90;;;;;;5160411;27;20455;-76
2024/02/28 01:06:50;;;;;;;55.40;35.20;;;2.40;99.90;;;;;;5160269;27;20468;-76
2024/02/28 01:09:18;;;;;;;53.63;36.13;;;2.40;99.90;;;;;;5160283;27;21021;-76
2024/02/28 01:11:47;;;;;;;57.10;35.93;;;2.30;99.90;;;;;;5179297;27;20436;-76
2024/02/28 01:14:15;;;;;;;54.80;37.47;;;2.40;99.90;;;;;;5178929;27;20432;-76
2024/02/28 01:16:45;;;;;;;57.97;39.70;;;2.30;99.90;;;;;;5160238;27;20447;-76
2024/02/28 01:19:14;;;;;;;52.93;35.43;;;2.30;99.90;;;;;;5178844;27;20481;-76
2024/02/28 01:21:42;;;;;;;55.97;37.50;;;2.30;99.90;;;;;;5160098;27;20544;-76
2024/02/28 01:24:10;;;;;;;56.00;37.90;;;2.30;99.90;;;;;;5159970;27;20551;-76
2024/02/28 01:26:39;;;;;;;52.97;37.13;;;2.30;99.90;;;;;;5159696;27;20441;-76
2024/02/28 01:29:07;;;;;;;58.43;36.53;;;2.20;99.90;;;;;;5160186;27;20465;-76
2024/02/28 01:31:35;;;;;;;52.97;34.67;;;2.20;99.90;;;;;;5159869;27;20444;-76
2024/02/28 01:34:05;;;;;;;57.97;36.07;;;2.20;99.90;;;;;;5159885;27;20480;-76
2024/02/28 01:36:34;;;;;;;55.53;36.90;;;2.20;99.90;;;;;;5159668;27;20445;-76
2024/02/28 01:39:03;;;;;;;54.23;33.83;;;2.10;99.90;;;;;;5159742;27;21004;-76
2024/02/28 01:41:31;;;;;;;52.93;35.20;;;2.10;99.90;;;;;;5159605;27;20489;-76
2024/02/28 01:44:00;;;;;;;58.67;36.80;;;2.10;99.90;;;;;;5159621;27;20471;-76
2024/02/28 01:46:29;;;;;;;54.30;36.80;;;2.10;99.90;;;;;;5159580;27;20468;-76
2024/02/28 01:48:58;;;;;;;56.30;36.10;;;2.10;99.90;;;;;;5178358;27;20425;-76
2024/02/28 01:51:28;;;;;;;58.47;35.07;;;2.00;99.90;;;;;;5159378;27;20543;-76
2024/02/28 01:53:58;;;;;;;49.53;34.50;;;2.00;99.90;;;;;;5178388;27;20535;-76
2024/02/28 01:56:27;;;;;;;53.80;34.30;;;2.00;99.90;;;;;;5159299;27;20458;-76
2024/02/28 01:58:58;;;;;;;55.13;35.07;;;2.00;99.90;;;;;;5159308;27;20448;-76
2024/02/28 02:01:27;;;;;;;54.70;35.30;;;1.90;99.90;;;;;;5159538;27;20428;-76
2024/02/28 02:03:56;;;;;;;52.67;32.87;;;1.90;99.90;;;;;;5159339;27;20460;-76
2024/02/28 02:06:24;;;;;;;53.93;32.97;;;1.90;99.90;;;;;;5158401;27;20784;-76
2024/02/28 02:08:55;;;;;;;53.90;34.33;;;1.80;99.90;;;;;;5159228;27;20456;-76
2024/02/28 02:11:24;;;;;;;54.47;34.47;;;1.80;99.90;;;;;;5159111;27;20440;-76
2024/02/28 02:13:54;;;;;;;56.87;35.43;;;1.80;99.90;;;;;;5159058;27;20444;-76
2024/02/28 02:16:25;;;;;;;60.17;37.80;;;1.80;99.90;;;;;;5158893;27;20500;-76
2024/02/28 02:18:54;;;;;;;52.57;33.90;;;1.70;99.90;;;;;;5158918;27;20468;-76
2024/02/28 02:21:25;;;;;;;56.47;36.17;;;1.70;99.90;;;;;;5177559;27;20522;-76
2024/02/28 02:23:55;;;;;;;56.80;38.30;;;1.70;99.90;;;;;;5177390;27;20433;-76
2024/02/28 02:26:23;;;;;;;61.77;43.87;;;1.70;99.90;;;;;;5158770;27;20202;-77
2024/02/28 02:28:51;;;;;;;69.70;42.20;;;1.70;99.90;;;;;;5158956;27;20903;-76
2024/02/28 02:31:21;;;;;;;66.80;40.40;;;1.70;99.90;;;;;;5158757;27;20442;-76
2024/02/28 02:33:49;;;;;;;61.90;39.70;;;1.70;99.90;;;;;;5158626;27;20961;-76
2024/02/28 02:36:17;;;;;;;62.20;40.83;;;1.70;99.90;;;;;;5158723;27;20441;-76
2024/02/28 02:38:46;;;;;;;59.40;39.03;;;1.70;99.90;;;;;;5158470;27;20471;-76
2024/02/28 02:41:16;;;;;;;65.93;41.80;;;1.70;99.90;;;;;;5177311;27;20459;-75
2024/02/28 02:43:44;;;;;;;62.57;39.77;;;1.80;99.90;;;;;;5158282;27;20809;-76
2024/02/28 02:46:12;;;;;;;62.43;41.30;;;1.70;99.90;;;;;;5158532;27;20431;-76
2024/02/28 02:48:41;;;;;;;61.13;40.67;;;1.70;99.90;;;;;;5176917;27;20505;-76
2024/02/28 02:51:09;;;;;;;57.97;38.40;;;1.70;99.90;;;;;;5158297;27;20444;-76
2024/02/28 02:53:38;;;;;;;54.93;35.50;;;1.70;99.90;;;;;;5158314;27;20436;-76
2024/02/28 02:56:07;;;;;;;50.37;34.70;;;1.80;99.90;;;;;;5158175;27;20440;-76
2024/02/28 02:58:36;;;;;;;50.53;34.97;;;1.80;99.90;;;;;;5158018;27;20468;-76
2024/02/28 03:01:05;;;;;;;49.77;33.97;;;1.80;99.90;;;;;;5176741;27;20436;-76
2024/02/28 03:03:33;;;;;;;55.57;34.33;;;1.80;99.90;;;;;;5176631;27;20938;-76
2024/02/28 03:06:02;;;;;;;51.50;35.10;;;1.90;99.90;;;;;;5158104;27;20497;-76
2024/02/28 03:08:30;;;;;;;47.50;31.67;;;1.90;99.90;;;;;;5176553;27;20455;-76
2024/02/28 03:10:59;;;;;;;49.90;33.60;;;1.90;99.90;;;;;;5157981;27;20436;-75
2024/02/28 03:13:28;;;;;;;48.00;31.20;;;1.90;99.90;;;;;;5176497;27;20474;-75
2024/02/28 03:15:58;;;;;;;48.67;31.83;;;1.90;99.90;;;;;;5176457;27;20763;-75
2024/02/28 03:18:26;;;;;;;46.20;32.53;;;2.00;99.90;;;;;;5176624;27;20460;-75
2024/02/28 03:20:55;;;;;;;47.37;31.73;;;1.90;99.90;;;;;;5157855;27;20433;-74
2024/02/28 03:23:23;;;;;;;47.20;31.73;;;2.00;99.90;;;;;;5157956;27;20500;-76
2024/02/28 03:25:51;;;;;;;45.60;31.33;;;2.00;99.90;;;;;;5157719;27;20449;-76
2024/02/28 03:28:20;;;;;;;45.87;31.03;;;2.00;99.90;;;;;;5157476;27;20492;-75
2024/02/28 03:30:48;;;;;;;45.40;31.50;;;2.00;99.90;;;;;;5176207;27;20435;-75
2024/02/28 03:33:18;;;;;;;49.37;32.97;;;2.00;99.90;;;;;;5157549;27;20451;-76
2024/02/28 03:35:46;;;;;;;41.53;30.50;;;2.00;99.90;;;;;;5176013;27;20440;-76
2024/02/28 03:38:15;;;;;;;48.00;31.17;;;2.00;99.90;;;;;;5157326;27;20491;-76
2024/02/28 03:40:43;;;;;;;44.47;30.77;;;2.00;99.90;;;;;;5157365;27;20451;-75
2024/02/28 03:43:12;;;;;;;54.20;32.40;;;2.00;99.90;;;;;;5176264;27;20920;-76
2024/02/28 03:45:41;;;;;;;41.63;29.03;;;2.00;99.90;;;;;;5157094;27;20479;-76
2024/02/28 03:48:09;;;;;;;49.93;33.47;;;2.00;99.90;;;;;;5157353;27;20502;-76
2024/02/28 03:50:39;;;;;;;48.53;31.30;;;2.00;99.90;;;;;;5157220;27;20479;-76
2024/02/28 03:53:08;;;;;;;46.90;30.30;;;2.00;99.90;;;;;;5176466;27;20425;-76
2024/02/28 03:55:37;;;;;;;50.60;32.60;;;2.10;99.90;;;;;;5175861;27;20442;-76
2024/02/28 03:58:08;;;;;;;48.07;31.63;;;2.00;99.90;;;;;;5156942;27;20468;-76
2024/02/28 04:00:37;;;;;;;53.20;33.30;;;2.10;99.90;;;;;;5157293;27;20455;-76
2024/02/28 04:03:06;;;;;;;47.43;34.30;;;2.10;99.90;;;;;;5157098;27;20458;-76
2024/02/28 04:05:35;;;;;;;46.90;30.87;;;2.10;99.90;;;;;;5156926;27;20840;-76
2024/02/28 04:08:05;;;;;;;49.80;33.97;;;2.10;99.90;;;;;;5156939;27;20452;-76
2024/02/28 04:10:34;;;;;;;49.00;30.97;;;2.10;99.90;;;;;;5175941;27;20844;-76
2024/02/28 04:13:02;;;;;;;47.33;30.80;;;2.00;99.90;;;;;;5175882;27;20512;-75
2024/02/28 04:15:32;;;;;;;47.70;32.87;;;2.10;99.90;;;;;;5176119;27;20439;-76
2024/02/28 04:18:00;;;;;;;45.83;31.07;;;2.10;99.90;;;;;;5156861;27;20461;-76
2024/02/28 04:20:29;;;;;;;52.80;33.97;;;2.10;99.90;;;;;;5156871;27;20511;-76
2024/02/28 04:22:57;;;;;;;49.93;32.80;;;2.00;99.90;;;;;;5156888;27;20898;-76
2024/02/28 04:25:27;;;;;;;52.03;33.47;;;2.00;99.90;;;;;;5156762;27;20955;-76
2024/02/28 04:27:56;;;;;;;47.90;32.33;;;2.00;99.90;;;;;;5175308;27;20463;-76
2024/02/28 04:30:25;;;;;;;49.13;30.53;;;2.00;99.90;;;;;;5160562;27;20451;-76
2024/02/28 04:32:54;;;;;;;49.13;32.20;;;2.00;99.90;;;;;;5160911;27;20436;-76
2024/02/28 04:35:23;;;;;;;55.20;33.30;;;2.00;99.90;;;;;;5160811;27;20494;-76
2024/02/28 04:37:51;;;;;;;55.30;33.70;;;2.00;99.90;;;;;;5179444;27;20520;-76
2024/02/28 04:40:20;;;;;;;59.23;34.60;;;1.90;99.90;;;;;;5160753;27;20497;-76
2024/02/28 04:42:50;;;;;;;55.20;33.70;;;1.90;99.90;;;;;;5160868;27;20447;-76
2024/02/28 04:45:18;;;;;;;56.93;38.17;;;1.90;99.90;;;;;;5160609;27;20516;-76
2024/02/28 04:47:47;;;;;;;53.30;34.60;;;1.90;99.90;;;;;;5160489;27;20994;-76
2024/02/28 04:50:15;;;;;;;51.73;32.57;;;1.90;99.90;;;;;;5160529;27;20448;-76
2024/02/28 04:52:44;;;;;;;53.60;32.47;;;1.90;99.90;;;;;;5160597;27;20953;-76
2024/02/28 04:55:12;;;;;;;53.60;34.00;;;1.90;99.90;;;;;;5160445;27;20451;-76
2024/02/28 04:57:40;;;;;;;56.40;36.33;;;1.80;99.90;;;;;;5160830;27;20571;-76
2024/02/28 05:00:11;;;;;;;58.67;33.70;;;1.80;99.90;;;;;;5179042;27;20811;-76
2024/02/28 05:02:40;;;;;;;61.83;37.10;;;1.80;99.90;;;;;;5160369;27;20531;-76
2024/02/28 05:05:08;;;;;;;71.97;39.27;;;1.80;99.90;;;;;;5160192;27;20538;-76
2024/02/28 05:07:37;;;;;;;68.67;40.07;;;1.80;99.90;;;;;;5160200;27;20557;-76
2024/02/28 05:10:07;;;;;;;73.40;40.90;;;1.80;99.90;;;;;;5160090;27;20465;-76
2024/02/28 05:12:35;;;;;;;75.43;39.40;;;1.70;99.90;;;;;;5160019;27;20443;-76
2024/02/28 05:15:06;;;;;;;80.07;41.17;;;1.70;99.90;;;;;;5160122;27;20437;-76
2024/02/28 05:17:36;;;;;;;84.60;41.70;;;1.70;99.90;;;;;;5160069;27;20501;-76
2024/02/28 05:20:05;;;;;;;79.57;41.47;;;1.70;99.90;;;;;;5159931;27;20542;-76
2024/02/28 05:22:33;;;;;;;90.23;43.43;;;1.70;99.90;;;;;;5178776;27;20433;-76
2024/02/28 05:25:02;;;;;;;92.77;39.30;;;1.70;99.90;;;;;;5159844;27;20476;-76
2024/02/28 05:27:30;;;;;;;92.60;41.30;;;1.70;99.90;;;;;;5159631;27;21055;-76
2024/02/28 05:30:00;;;;;;;84.30;39.77;;;1.70;99.90;;;;;;5159827;27;20471;-76
2024/02/28 05:32:29;;;;;;;88.40;40.67;;;1.60;99.90;;;;;;5159841;27;20471;-76
2024/02/28 05:34:59;;;;;;;81.10;42.73;;;1.60;99.90;;;;;;5159715;27;20448;-76
2024/02/28 05:37:28;;;;;;;83.93;40.63;;;1.60;99.90;;;;;;5159596;27;20473;-76
2024/02/28 05:39:56;;;;;;;88.83;43.80;;;1.60;99.90;;;;;;5158950;27;20448;-76
2024/02/28 05:42:25;;;;;;;94.80;43.30;;;1.60;99.90;;;;;;5159207;27;20452;-76
2024/02/28 05:44:53;;;;;;;95.63;41.30;;;1.60;99.90;;;;;;5159432;27;20514;-76
2024/02/28 05:47:21;;;;;;;97.87;43.50;;;1.60;99.90;;;;;;5178355;27;20450;-76
2024/02/28 05:49:55;;;;;;;93.13;41.17;;;1.60;99.90;;;;;;5159523;27;20455;-76
2024/02/28 05:52:27;;;;;;;98.50;43.27;;;1.60;99.90;;;;;;5159622;27;20442;-76
2024/02/28 05:54:55;;;;;;;101.37;43.50;;;1.60;99.90;;;;;;5159564;27;20508;-76
2024/02/28 05:57:24;;;;;;;101.83;43.90;;;1.60;99.90;;;;;;5178363;27;20505;-76
2024/02/28 05:59:53;;;;;;;101.30;41.27;;;1.60;99.90;;;;;;5178452;27;20497;-76
2024/02/28 06:02:22;;;;;;;113.60;47.50;;;1.60;99.90;;;;;;5159382;27;20443;-76
2024/02/28 06:04:50;;;;;;;107.97;43.60;;;1.60;99.90;;;;;;5159375;27;20440;-76
2024/02/28 06:07:18;;;;;;;100.20;43.80;;;1.60;99.90;;;;;;5159178;27;20834;-76
2024/02/28 06:09:49;;;;;;;100.83;39.87;;;1.60;99.90;;;;;;5159140;27;20448;-76
2024/02/28 06:12:17;;;;;;;86.03;37.80;;;1.70;99.90;;;;;;5178369;27;20912;-76
2024/02/28 06:14:46;;;;;;;88.03;40.63;;;1.60;99.90;;;;;;5159309;27;20438;-76
2024/02/28 06:17:14;;;;;;;83.47;38.57;;;1.60;99.90;;;;;;5158904;27;20520;-76
2024/02/28 06:19:43;;;;;;;86.30;39.30;;;1.70;99.90;;;;;;5159007;27;20475;-75
2024/02/28 06:22:11;;;;;;;87.90;38.50;;;1.70;99.90;;;;;;5177721;27;20432;-74
2024/02/28 06:24:40;;;;;;;87.83;38.63;;;1.70;99.90;;;;;;5158840;27;20956;-76
2024/02/28 06:27:12;;;;;;;76.43;38.63;;;1.70;99.90;;;;;;5177413;27;20888;-77
2024/02/28 06:29:41;;;;;;;82.80;41.50;;;1.70;99.90;;;;;;5159053;27;20443;-76
2024/02/28 06:32:10;;;;;;;86.90;41.33;;;1.70;99.90;;;;;;5158717;27;20447;-76
2024/02/28 06:34:38;;;;;;;77.83;36.93;;;1.70;99.90;;;;;;5158731;27;20451;-76
2024/02/28 06:37:07;;;;;;;78.77;35.60;;;1.70;99.90;;;;;;5158576;27;20461;-76
2024/02/28 06:39:35;;;;;;;77.00;36.30;;;1.70;99.90;;;;;;5177235;27;20433;-76
2024/02/28 06:42:05;;;;;;;73.73;35.37;;;1.70;99.90;;;;;;5178005;27;20440;-76
2024/02/28 06:44:36;;;;;;;80.73;38.23;;;1.70;99.90;;;;;;5158448;27;20433;-76
2024/02/28 06:47:05;;;;;;;77.57;37.30;;;1.70;99.90;;;;;;5176920;27;20523;-76
2024/02/28 06:49:33;;;;;;;74.80;37.90;;;1.70;99.90;;;;;;5158426;27;20440;-76
2024/02/28 06:52:02;;;;;;;66.50;34.97;;;1.70;99.90;;;;;;5158008;27;20817;-76
2024/02/28 06:54:30;;;;;;;68.33;32.80;;;1.70;99.90;;;;;;5158429;27;20947;-76
2024/02/28 06:57:00;;;;;;;56.90;33.63;;;1.80;99.90;;;;;;5158228;27;20464;-76
2024/02/28 06:59:28;;;;;;;62.90;32.50;;;1.80;99.90;;;;;;5158173;27;20451;-76
2024/02/28 07:01:59;;;;;;;60.60;32.93;;;1.80;99.90;;;;;;5176778;27;20501;-76
2024/02/28 07:04:27;;;;;;;52.37;28.93;;;1.80;99.90;;;;;;5176748;27;20435;-76
2024/02/28 07:06:56;;;;;;;52.07;29.73;;;1.80;99.90;;;;;;5176642;27;20480;-76
2024/02/28 07:09:25;;;;;;;50.97;28.77;;;1.80;99.90;;;;;;5157957;27;20451;-76
2024/02/28 07:11:54;;;;;;;52.37;28.93;;;1.80;99.90;;;;;;5157980;27;20470;-76
2024/02/28 07:14:22;;;;;;;48.97;30.40;;;1.90;99.90;;;;;;5157985;27;20437;-76
2024/02/28 07:16:52;;;;;;;51.97;29.40;;;1.90;99.90;;;;;;5157930;27;20456;-76
2024/02/28 07:19:22;;;;;;;47.40;28.50;;;1.90;99.90;;;;;;5157878;27;20545;-76
2024/02/28 07:21:50;;;;;;;40.73;23.97;;;1.90;99.90;;;;;;5157826;27;20788;-76
2024/02/28 07:24:19;;;;;;;45.00;27.77;;;1.90;99.90;;;;;;5176690;27;20432;-76
2024/02/28 07:26:48;;;;;;;40.27;25.30;;;1.90;99.90;;;;;;5157446;27;20496;-76
2024/02/28 07:29:17;;;;;;;38.07;26.07;;;1.90;99.90;;;;;;5157940;27;20475;-76
2024/02/28 07:31:46;;;;;;;46.17;27.10;;;1.90;99.90;;;;;;5157555;27;20455;-76
2024/02/28 07:34:14;;;;;;;40.10;26.60;;;1.90;99.90;;;;;;5157596;27;20853;-76
2024/02/28 07:36:44;;;;;;;35.77;23.50;;;2.00;99.90;;;;;;5176400;27;20462;-76
2024/02/28 07:39:13;;;;;;;40.90;25.50;;;2.00;99.90;;;;;;5176119;27;20848;-76
2024/02/28 07:41:42;;;;;;;33.83;23.53;;;2.00;99.90;;;;;;5157704;27;20857;-76
2024/02/28 07:44:11;;;;;;;40.57;24.37;;;2.00;99.90;;;;;;5157540;27;20854;-76
2024/02/28 07:46:41;;;;;;;37.23;23.60;;;2.00;99.90;;;;;;5157309;27;20455;-76
2024/02/28 07:49:10;;;;;;;34.97;24.20;;;2.00;99.90;;;;;;5157692;27;20457;-76
2024/02/28 07:51:40;;;;;;;38.10;22.97;;;2.00;99.90;;;;;;5157483;27;20454;-76
2024/02/28 07:54:10;;;;;;;32.33;23.93;;;2.00;99.90;;;;;;5157721;27;20432;-76
2024/02/28 07:56:39;;;;;;;37.80;24.87;;;2.10;99.90;;;;;;5157303;27;20448;-76
2024/02/28 07:59:07;;;;;;;32.10;23.13;;;2.10;99.90;;;;;;5157703;27;20445;-76
2024/02/28 08:01:39;;;;;;;33.80;23.90;;;2.10;99.90;;;;;;5157264;27;20448;-76
2024/02/28 08:04:08;;;;;;;34.93;25.80;;;2.10;99.90;;;;;;5156580;27;20522;-76
2024/02/28 08:06:37;;;;;;;32.53;22.03;;;2.10;99.90;;;;;;5157041;27;20498;-76
2024/02/28 08:09:05;;;;;;;33.00;22.20;;;2.20;99.90;;;;;;5157218;27;20812;-76
2024/02/28 08:11:38;;;;;;;30.73;21.43;;;2.20;99.90;;;;;;5175778;27;20420;-76
2024/02/28 08:14:07;;;;;;;33.77;22.30;;;2.20;99.90;;;;;;5157001;27;20834;-76
2024/02/28 08:16:35;;;;;;;32.80;22.13;;;2.20;99.90;;;;;;5175641;27;20436;-76
2024/02/28 08:19:04;;;;;;;31.37;20.23;;;2.30;99.90;;;;;;5157900;27;20865;-76
2024/02/28 08:21:33;;;;;;;32.30;22.20;;;2.30;99.90;;;;;;5156995;27;20453;-76
2024/02/28 08:24:04;;;;;;;32.10;22.07;;;2.30;99.90;;;;;;5156975;27;20947;-76
2024/02/28 08:26:32;;;;;;;33.17;23.73;;;2.40;99.90;;;;;;5156765;27;21047;-76
2024/02/28 08:29:02;;;;;;;31.97;21.93;;;2.40;99.90;;;;;;5157121;27;21047;-76
2024/02/28 08:31:31;;;;;;;31.97;23.90;;;2.50;99.90;;;;;;5156894;27;20448;-76
2024/02/28 08:33:59;;;;;;;33.57;21.77;;;2.50;99.90;;;;;;5157645;27;20929;-76
2024/02/28 08:36:28;;;;;;;34.03;24.20;;;2.50;99.90;;;;;;5175486;27;20432;-76
2024/02/28 08:38:56;;;;;;;30.93;21.37;;;2.60;99.90;;;;;;5156795;27;20436;-76
2024/02/28 08:41:25;;;;;;;32.10;22.20;;;2.60;99.90;;;;;;5156950;27;20541;-76
2024/02/28 08:43:53;;;;;;;33.67;22.10;;;2.60;99.90;;;;;;5156828;27;20436;-75
2024/02/28 08:46:23;;;;;;;36.93;26.00;;;2.70;99.90;;;;;;5156708;27;20491;-76
2024/02/28 08:48:52;;;;;;;35.03;26.03;;;2.70;99.90;;;;;;5156745;27;20977;-76
2024/02/28 08:51:20;;;;;;;36.53;24.50;;;2.80;99.90;;;;;;5156769;27;20483;-76
2024/02/28 08:53:52;;;;;;;35.50;24.50;;;2.90;99.90;;;;;;5156894;27;20543;-76
2024/02/28 08:56:20;;;;;;;33.90;24.70;;;2.90;99.90;;;;;;5156769;27;20440;-76
2024/02/28 08:58:49;;;;;;;37.60;27.20;;;3.00;99.90;;;;;;5156861;27;20453;-76
2024/02/28 09:01:17;;;;;;;32.13;25.60;;;3.00;99.90;;;;;;5156729;27;20531;-76
2024/02/28 09:03:48;;;;;;;33.57;25.40;;;3.10;99.90;;;;;;5156729;27;20464;-76
2024/02/28 09:06:16;;;;;;;33.23;24.43;;;3.20;99.90;;;;;;5175520;27;20489;-76
2024/02/28 09:08:45;;;;;;;33.67;24.73;;;3.20;99.90;;;;;;5156569;27;20463;-76
2024/02/28 09:11:13;;;;;;;30.97;22.50;;;3.20;99.90;;;;;;5175391;27;20503;-76
2024/02/28 09:13:42;;;;;;;29.50;19.63;;;3.20;99.90;;;;;;5156550;27;20460;-76
2024/02/28 09:16:10;;;;;;;36.17;26.43;;;3.30;99.90;;;;;;5159235;27;20544;-76
2024/02/28 09:18:39;;;;;;;35.63;24.63;;;3.30;99.90;;;;;;5160394;27;20452;-76
2024/02/28 09:21:10;;;;;;;33.17;25.60;;;3.40;99.90;;;;;;5160070;27;20436;-77
2024/02/28 09:23:39;;;;;;;33.13;26.10;;;3.40;99.90;;;;;;5160125;27;20532;-76
2024/02/28 09:26:08;;;;;;;32.73;26.40;;;3.50;99.90;;;;;;5178668;27;20437;-75
2024/02/28 09:28:38;;;;;;;31.30;24.67;;;3.50;99.90;;;;;;5178292;27;20464;-76
2024/02/28 09:31:06;;;;;;;36.67;26.40;;;3.50;99.90;;;;;;5159834;27;20532;-77
2024/02/28 09:33:35;;;;;;;33.07;23.77;;;3.60;99.90;;;;;;5178637;27;20618;-76
2024/02/28 09:36:04;;;;;;;35.97;26.80;;;3.60;99.90;;;;;;5159912;27;20547;-76
2024/02/28 09:38:34;;;;;;;34.00;26.00;;;3.60;99.90;;;;;;5159855;27;21023;-76
2024/02/28 09:41:03;;;;;;;35.17;25.10;;;3.70;99.90;;;;;;5178520;27;20456;-76
2024/02/28 09:43:34;;;;;;;35.37;25.23;;;3.70;99.90;;;;;;5159805;27;20440;-76
2024/02/28 09:46:05;;;;;;;34.00;24.43;;;3.70;99.90;;;;;;5159739;27;20454;-76
2024/02/28 09:48:34;;;;;;;34.87;25.50;;;3.70;99.90;;;;;;5178442;27;20457;-76
2024/02/28 09:51:04;;;;;;;36.43;27.63;;;3.70;99.90;;;;;;5159837;27;20433;-77
2024/02/28 09:53:35;;;;;;;34.10;25.50;;;3.70;99.90;;;;;;5159822;27;20475;-77
2024/02/28 09:56:04;;;;;;;35.93;25.73;;;3.80;99.90;;;;;;5159569;27;20433;-77
2024/02/28 09:58:32;;;;;;;37.93;25.63;;;3.80;99.90;;;;;;5159308;27;21007;-77
2024/02/28 10:01:04;;;;;;;38.60;28.40;;;3.80;99.90;;;;;;5178164;27;20432;-77
2024/02/28 10:03:34;;;;;;;39.73;30.03;;;3.80;99.90;;;;;;5159445;27;20493;-77
2024/02/28 10:06:02;;;;;;;34.63;28.00;;;3.90;99.90;;;;;;5178115;27;20432;-77
2024/02/28 10:08:36;;;;;;;37.83;28.70;;;3.90;99.90;;;;;;5159047;27;20521;-77
2024/02/28 10:11:06;;;;;;;38.23;27.97;;;3.90;99.90;;;;;;5159297;27;20448;-76
2024/02/28 10:13:35;;;;;;;38.27;29.13;;;4.00;99.90;;;;;;5177853;27;20936;-76
2024/02/28 10:16:03;;;;;;;38.10;29.60;;;4.00;99.90;;;;;;5159033;27;20440;-76
2024/02/28 10:18:32;;;;;;;42.00;29.50;;;4.00;99.90;;;;;;5158967;27;21001;-77
2024/02/28 10:21:01;;;;;;;39.93;31.30;;;4.10;99.90;;;;;;5159064;27;20784;-77
2024/02/28 10:23:29;;;;;;;35.33;27.73;;;4.10;99.90;;;;;;5159044;27;20476;-77
2024/02/28 10:26:02;;;;;;;44.37;31.67;;;4.20;99.90;;;;;;5177477;27;20848;-77
2024/02/28 10:28:30;;;;;;;48.57;31.17;;;4.20;99.90;;;;;;5158638;27;20536;-77
2024/02/28 10:30:59;;;;;;;43.77;31.27;;;4.30;99.90;;;;;;5158889;27;20468;-77
2024/02/28 10:33:29;;;;;;;43.10;32.00;;;4.30;99.90;;;;;;5177613;27;20437;-77
2024/02/28 10:35:58;;;;;;;45.73;30.33;;;4.40;99.90;;;;;;5178145;27;20508;-77
2024/02/28 10:38:28;;;;;;;45.10;31.40;;;4.40;99.90;;;;;;5158628;27;20461;-77
2024/02/28 10:40:57;;;;;;;50.00;32.43;;;4.50;99.90;;;;;;5158792;27;20451;-77
2024/02/28 10:43:29;;;;;;;45.97;33.80;;;4.60;99.90;;;;;;5158728;27;20910;-76
2024/02/28 10:45:59;;;;;;;51.80;33.00;;;4.60;99.90;;;;;;5177994;27;20477;-77
2024/02/28 10:48:49;;;;;;;46.03;33.90;;;4.70;99.90;;;;;;5158518;27;20965;-77
2024/02/28 10:51:21;;;;;;;45.33;32.97;;;4.80;99.90;;;;;;5158755;27;20444;-77
2024/02/28 10:53:55;;;;;;;46.47;33.33;;;4.80;99.90;;;;;;5159088;27;20564;-78
2024/02/28 10:56:23;;;;;;;48.07;32.43;;;4.80;99.90;;;;;;5158594;27;20458;-75
2024/02/28 10:58:56;;;;;;;39.77;27.63;;;4.90;99.90;;;;;;5158493;27;20564;-76
2024/02/28 11:01:25;;;;;;;44.57;33.50;;;5.00;99.90;;;;;;5158451;27;20445;-76
2024/02/28 11:03:54;;;;;;;46.13;36.07;;;5.10;99.90;;;;;;5158153;27;20444;-77
2024/02/28 11:06:24;;;;;;;52.63;35.80;;;5.10;99.90;;;;;;5158114;27;20446;-75
2024/02/28 11:08:54;;;;;;;47.33;36.33;;;5.20;99.90;;;;;;5157746;27;20530;-76
2024/02/28 11:11:23;;;;;;;48.83;35.00;;;5.20;99.90;;;;;;5157974;27;20477;-76
2024/02/28 11:13:57;;;;;;;51.47;35.03;;;5.30;99.90;;;;;;5157941;27;20440;-77
2024/02/28 11:16:30;;;;;;;49.10;34.17;;;5.30;99.90;;;;;;5158293;27;20464;-75
2024/02/28 11:18:59;;;;;;;47.17;35.40;;;5.30;99.90;;;;;;5176711;27;20413;-76
2024/02/28 11:21:29;;;;;;;44.10;34.17;;;5.40;99.90;;;;;;5158272;27;20774;-76
2024/02/28 11:24:01;;;;;;;45.87;35.50;;;5.40;99.90;;;;;;5158512;27;20453;-75
2024/02/28 11:26:30;;;;;;;44.47;33.13;;;5.50;99.90;;;;;;5176685;27;20905;-77
2024/02/28 11:29:00;;;;;;;51.53;38.20;;;5.50;99.90;;;;;;5158493;27;20468;-77
2024/02/28 11:31:28;;;;;;;46.47;35.77;;;5.50;99.90;;;;;;5159142;27;20476;-77
2024/02/28 11:33:57;;;;;;;45.50;34.57;;;5.60;99.90;;;;;;5159070;27;20445;-77
2024/02/28 11:36:26;;;;;;;43.13;33.70;;;5.60;99.90;;;;;;5157842;27;20482;-77
2024/02/28 11:38:54;;;;;;;48.50;35.47;;;5.60;99.90;;;;;;5156781;27;20443;-77
2024/02/28 11:41:27;;;;;;;49.97;35.80;;;5.70;99.90;;;;;;5157837;27;20801;-77
2024/02/28 11:43:56;;;;;;;42.70;32.67;;;5.70;99.90;;;;;;5176692;27;20432;-77
2024/02/28 11:46:26;;;;;;;45.90;35.33;;;5.70;99.90;;;;;;5157824;27;20444;-77
2024/02/28 11:48:55;;;;;;;41.23;33.00;;;5.80;99.90;;;;;;5158405;27;20461;-77
2024/02/28 11:51:24;;;;;;;43.00;31.60;;;5.80;99.90;;;;;;5157642;27;20481;-76
2024/02/28 11:53:53;;;;;;;41.47;32.60;;;5.80;99.90;;;;;;5157522;27;20809;-77
2024/02/28 11:56:22;;;;;;;41.13;32.10;;;5.80;99.90;;;;;;5157425;27;20818;-77
2024/02/28 11:58:51;;;;;;;38.27;31.43;;;5.80;99.90;;;;;;5176074;27;20442;-77
2024/02/28 12:01:20;;;;;;;46.43;33.47;;;5.90;99.90;;;;;;5176129;27;20432;-77
2024/02/28 12:03:52;;;;;;;45.87;35.53;;;5.90;99.90;;;;;;5158497;27;20507;-78
2024/02/28 12:06:21;;;;;;;46.40;34.13;;;6.00;99.90;;;;;;5157909;27;20483;-77
2024/02/28 12:08:50;;;;;;;44.83;34.00;;;6.00;99.90;;;;;;5157779;27;20830;-78
2024/02/28 12:11:22;;;;;;;43.07;33.63;;;6.00;99.90;;;;;;5158911;27;20444;-77
2024/02/28 12:13:56;;;;;;;46.50;34.60;;;6.10;99.90;;;;;;5158884;27;20441;-77
2024/02/28 12:16:27;;;;;;;43.50;35.50;;;6.20;99.90;;;;;;5158479;27;20438;-78
2024/02/28 12:18:57;;;;;;;46.30;34.17;;;6.20;99.90;;;;;;5158544;27;20445;-75
2024/02/28 12:21:26;;;;;;;46.53;36.37;;;6.30;99.90;;;;;;5176604;27;20899;-77
2024/02/28 12:23:59;;;;;;;43.20;35.43;;;6.30;99.90;;;;;;5157870;27;20447;-78
2024/02/28 12:26:29;;;;;;;39.30;34.77;;;6.40;99.90;;;;;;5157543;27;20491;-77
2024/02/28 12:28:58;;;;;;;40.30;35.00;;;6.50;99.90;;;;;;5157097;27;20497;-77
2024/02/28 12:31:27;;;;;;;43.50;36.07;;;6.60;99.90;;;;;;5157360;27;20545;-77
2024/02/28 12:33:57;;;;;;;39.97;32.70;;;6.60;99.90;;;;;;5176447;27;20441;-77
2024/02/28 12:36:30;;;;;;;40.43;33.40;;;6.60;99.90;;;;;;5157808;27;20926;-77
2024/02/28 12:39:00;;;;;;;39.87;34.60;;;6.70;99.90;;;;;;5157629;27;20907;-77
2024/02/28 12:41:28;;;;;;;42.57;36.00;;;6.70;99.90;;;;;;5157529;27;20438;-77
2024/02/28 12:43:57;;;;;;;42.97;33.70;;;6.70;99.90;;;;;;5157559;27;20953;-77
2024/02/28 12:46:26;;;;;;;41.77;33.73;;;6.70;99.90;;;;;;5156975;27;21000;-77